createdAt,value
2018-04-16T00:00:34.690Z,21.9
2018-04-16T00:01:24.758Z,21.9
2018-04-16T00:02:14.324Z,21.9
2018-04-16T00:03:05.219Z,21.9
2018-04-16T00:03:55.251Z,21.9
2018-04-16T00:04:45.043Z,21.9
2018-04-16T00:05:34.833Z,21.9
2018-04-16T00:06:24.868Z,21.9
2018-04-16T00:07:14.095Z,21.9
2018-04-16T00:08:05.531Z,21.9
2018-04-16T00:08:55.613Z,21.9
2018-04-16T00:09:45.418Z,21.8
2018-04-16T00:10:35.485Z,21.9
2018-04-16T00:11:25.515Z,21.9
2018-04-16T00:12:15.296Z,21.9
2018-04-16T00:13:05.405Z,21.9
2018-04-16T00:13:55.140Z,21.9
2018-04-16T00:14:46.055Z,21.9
2018-04-16T00:15:36.163Z,21.9
2018-04-16T00:16:25.631Z,21.8
2018-04-16T00:17:15.692Z,21.9
2018-04-16T00:18:05.482Z,21.9
2018-04-16T00:18:55.290Z,21.8
2018-04-16T00:19:45.883Z,21.8
2018-04-16T00:20:35.115Z,21.9
2018-04-16T00:21:25.740Z,21.9
2018-04-16T00:22:16.334Z,21.8
2018-04-16T00:23:05.864Z,21.9
2018-04-16T00:23:56.189Z,21.9
2018-04-16T00:24:46.276Z,21.9
2018-04-16T00:25:36.320Z,21.9
2018-04-16T00:26:26.694Z,21.8
2018-04-16T00:27:16.764Z,21.8
2018-04-16T00:28:05.937Z,21.8
2018-04-16T00:28:56.836Z,21.8
2018-04-16T00:29:46.945Z,21.8
2018-04-16T00:30:36.720Z,21.8
2018-04-16T00:31:26.515Z,21.9
2018-04-16T00:32:16.547Z,21.9
2018-04-16T00:33:06.632Z,21.9
2018-04-16T00:33:57.502Z,21.9
2018-04-16T00:34:47.305Z,21.8
2018-04-16T00:35:37.068Z,21.8
2018-04-16T00:36:26.592Z,21.8
2018-04-16T00:37:16.645Z,21.8
2018-04-16T00:38:07.005Z,21.9
2018-04-16T00:38:56.191Z,21.8
2018-04-16T00:39:47.975Z,21.8
2018-04-16T00:40:37.460Z,21.9
2018-04-16T00:41:27.851Z,21.8
2018-04-16T00:42:18.146Z,21.8
2018-04-16T00:43:07.702Z,21.8
2018-04-16T00:43:57.514Z,21.8
2018-04-16T00:44:47.539Z,21.9
2018-04-16T00:45:38.164Z,21.8
2018-04-16T00:46:28.281Z,21.8
2018-04-16T00:47:18.002Z,21.8
2018-04-16T00:48:08.049Z,21.9
2018-04-16T00:48:58.139Z,21.8
2018-04-16T00:49:48.154Z,21.8
2018-04-16T00:50:38.521Z,21.8
2018-04-16T00:51:28.344Z,21.8
2018-04-16T00:52:18.676Z,21.8
2018-04-16T00:53:07.150Z,21.8
2018-04-16T00:53:57.973Z,21.9
2018-04-16T00:54:48.274Z,21.8
2018-04-16T00:55:38.091Z,21.9
2018-04-16T00:56:28.424Z,21.8
2018-04-16T00:57:19.111Z,21.9
2018-04-16T00:58:08.268Z,21.8
2018-04-16T00:58:57.771Z,21.8
2018-04-16T00:59:49.208Z,21.9
2018-04-16T01:00:38.461Z,21.8
2018-04-16T01:01:29.351Z,21.8
2018-04-16T01:02:19.457Z,21.8
2018-04-16T01:03:07.492Z,21.8
2018-04-16T01:03:58.961Z,21.8
2018-04-16T01:04:49.320Z,21.8
2018-04-16T01:05:39.413Z,21.8
2018-04-16T01:06:29.508Z,21.8
2018-04-16T01:07:19.522Z,21.8
2018-04-16T01:08:09.600Z,21.8
2018-04-16T01:08:59.044Z,21.8
2018-04-16T01:09:50.246Z,21.8
2018-04-16T01:10:39.261Z,21.8
2018-04-16T01:11:30.364Z,21.8
2018-04-16T01:12:20.144Z,21.8
2018-04-16T01:13:09.404Z,21.8
2018-04-16T01:13:59.767Z,21.8
2018-04-16T01:14:49.785Z,21.8
2018-04-16T01:15:39.847Z,21.8
2018-04-16T01:16:29.931Z,21.8
2018-04-16T01:17:20.306Z,21.8
2018-04-16T01:18:10.110Z,21.8
2018-04-16T01:19:00.696Z,21.8
2018-04-16T01:19:49.629Z,21.8
2018-04-16T01:20:40.833Z,21.8
2018-04-16T01:21:29.760Z,21.8
2018-04-16T01:22:20.972Z,21.8
2018-04-16T01:23:10.738Z,21.8
2018-04-16T01:24:01.061Z,21.8
2018-04-16T01:24:50.898Z,21.8
2018-04-16T01:25:40.644Z,21.8
2018-04-16T01:26:31.311Z,21.8
2018-04-16T01:27:21.037Z,21.8
2018-04-16T01:28:10.815Z,21.8
2018-04-16T01:29:01.475Z,21.8
2018-04-16T01:29:51.258Z,21.8
2018-04-16T01:30:41.330Z,21.8
2018-04-16T01:31:30.516Z,21.8
2018-04-16T01:32:21.682Z,21.8
2018-04-16T01:33:11.306Z,21.8
2018-04-16T01:34:00.992Z,21.8
2018-04-16T01:34:51.084Z,21.8
2018-04-16T01:35:41.424Z,21.8
2018-04-16T01:36:32.010Z,21.8
2018-04-16T01:37:20.972Z,21.8
2018-04-16T01:38:11.599Z,21.8
2018-04-16T01:39:01.659Z,21.8
2018-04-16T01:39:51.753Z,21.8
2018-04-16T01:40:42.065Z,21.8
2018-04-16T01:41:32.432Z,21.8
2018-04-16T01:42:22.497Z,21.8
2018-04-16T01:43:12.502Z,21.8
2018-04-16T01:44:02.555Z,21.8
2018-04-16T01:44:52.909Z,21.8
2018-04-16T01:45:42.179Z,21.8
2018-04-16T01:46:32.467Z,21.8
2018-04-16T01:47:22.601Z,21.8
2018-04-16T01:48:12.326Z,21.8
2018-04-16T01:49:02.137Z,21.8
2018-04-16T01:49:53.337Z,21.8
2018-04-16T01:50:42.804Z,21.8
2018-04-16T01:51:32.862Z,21.8
2018-04-16T01:52:22.907Z,21.8
2018-04-16T01:53:12.464Z,21.8
2018-04-16T01:54:03.059Z,21.8
2018-04-16T01:54:53.108Z,21.8
2018-04-16T01:55:43.536Z,21.8
2018-04-16T01:56:33.100Z,21.8
2018-04-16T01:57:23.659Z,21.8
2018-04-16T01:58:13.429Z,21.8
2018-04-16T01:59:02.906Z,21.8
2018-04-16T01:59:53.525Z,21.8
2018-04-16T02:00:43.553Z,21.8
2018-04-16T02:01:33.668Z,21.8
2018-04-16T02:02:24.281Z,21.7
2018-04-16T02:03:13.793Z,21.7
2018-04-16T02:04:04.377Z,21.8
2018-04-16T02:04:54.435Z,21.7
2018-04-16T02:05:43.662Z,21.8
2018-04-16T02:06:34.055Z,21.7
2018-04-16T02:07:23.820Z,21.7
2018-04-16T02:08:14.427Z,21.7
2018-04-16T02:09:04.498Z,21.7
2018-04-16T02:09:53.709Z,21.7
2018-04-16T02:10:44.066Z,21.7
2018-04-16T02:11:35.557Z,21.8
2018-04-16T02:12:24.784Z,21.8
2018-04-16T02:13:13.390Z,21.7
2018-04-16T02:14:04.075Z,21.7
2018-04-16T02:14:54.669Z,21.7
2018-04-16T02:15:44.724Z,21.8
2018-04-16T02:16:35.063Z,21.8
2018-04-16T02:17:24.238Z,21.8
2018-04-16T02:18:14.362Z,21.8
2018-04-16T02:19:04.999Z,21.8
2018-04-16T02:19:54.994Z,21.7
2018-04-16T02:20:45.353Z,21.7
2018-04-16T02:21:35.220Z,21.8
2018-04-16T02:22:25.772Z,21.7
2018-04-16T02:23:15.554Z,21.8
2018-04-16T02:24:05.357Z,21.8
2018-04-16T02:24:55.440Z,21.8
2018-04-16T02:25:45.782Z,21.8
2018-04-16T02:26:34.977Z,21.8
2018-04-16T02:27:25.922Z,21.8
2018-04-16T02:28:15.401Z,21.8
2018-04-16T02:29:05.763Z,21.8
2018-04-16T02:29:55.806Z,21.8
2018-04-16T02:30:45.020Z,21.8
2018-04-16T02:31:35.109Z,21.8
2018-04-16T02:32:26.298Z,21.8
2018-04-16T02:33:15.597Z,21.7
2018-04-16T02:34:06.449Z,21.7
2018-04-16T02:34:56.780Z,21.8
2018-04-16T02:35:46.308Z,21.8
2018-04-16T02:36:36.039Z,21.7
2018-04-16T02:37:26.404Z,21.7
2018-04-16T02:38:15.842Z,21.7
2018-04-16T02:39:06.772Z,21.8
2018-04-16T02:39:56.321Z,21.8
2018-04-16T02:40:45.802Z,21.8
2018-04-16T02:41:36.477Z,21.8
2018-04-16T02:42:27.194Z,21.8
2018-04-16T02:43:16.597Z,21.7
2018-04-16T02:44:07.507Z,21.7
2018-04-16T02:44:56.939Z,21.7
2018-04-16T02:45:47.012Z,21.7
2018-04-16T02:46:37.647Z,21.7
2018-04-16T02:47:26.573Z,21.7
2018-04-16T02:48:16.699Z,21.7
2018-04-16T02:49:07.304Z,21.7
2018-04-16T02:49:57.359Z,21.7
2018-04-16T02:50:48.004Z,21.7
2018-04-16T02:51:37.501Z,21.7
2018-04-16T02:52:27.820Z,21.7
2018-04-16T02:53:18.203Z,21.7
2018-04-16T02:54:07.400Z,21.7
2018-04-16T02:54:57.706Z,21.7
2018-04-16T02:55:47.863Z,21.7
2018-04-16T02:56:37.825Z,21.7
2018-04-16T02:57:27.930Z,21.7
2018-04-16T02:58:17.703Z,21.7
2018-04-16T02:59:07.767Z,21.7
2018-04-16T02:59:57.958Z,21.6
2018-04-16T03:00:48.178Z,21.7
2018-04-16T03:01:38.817Z,21.7
2018-04-16T03:02:28.010Z,21.6
2018-04-16T03:03:18.150Z,21.7
2018-04-16T03:04:08.216Z,21.7
2018-04-16T03:04:58.193Z,21.6
2018-04-16T03:05:48.801Z,21.6
2018-04-16T03:06:38.298Z,21.7
2018-04-16T03:07:28.442Z,21.7
2018-04-16T03:08:19.300Z,21.6
2018-04-16T03:09:08.058Z,21.6
2018-04-16T03:09:59.460Z,21.7
2018-04-16T03:10:49.195Z,21.6
2018-04-16T03:11:39.024Z,21.7
2018-04-16T03:12:28.749Z,21.6
2018-04-16T03:13:18.836Z,21.6
2018-04-16T03:14:08.894Z,21.6
2018-04-16T03:14:59.534Z,21.7
2018-04-16T03:15:48.751Z,21.6
2018-04-16T03:16:39.375Z,21.7
2018-04-16T03:17:28.879Z,21.6
2018-04-16T03:18:19.816Z,21.7
2018-04-16T03:19:09.876Z,21.7
2018-04-16T03:19:59.884Z,21.7
2018-04-16T03:20:49.935Z,21.7
2018-04-16T03:21:39.753Z,21.7
2018-04-16T03:22:30.369Z,21.7
2018-04-16T03:23:19.958Z,21.7
2018-04-16T03:24:09.689Z,21.6
2018-04-16T03:24:59.335Z,21.6
2018-04-16T03:25:50.609Z,21.6
2018-04-16T03:26:39.318Z,21.6
2018-04-16T03:27:29.648Z,21.6
2018-04-16T03:28:20.511Z,21.7
2018-04-16T03:29:10.286Z,21.6
2018-04-16T03:30:00.391Z,21.6
2018-04-16T03:30:50.868Z,21.6
2018-04-16T03:31:39.969Z,21.6
2018-04-16T03:32:30.867Z,21.6
2018-04-16T03:33:20.609Z,21.6
2018-04-16T03:34:10.734Z,21.6
2018-04-16T03:34:59.894Z,21.6
2018-04-16T03:35:51.416Z,21.6
2018-04-16T03:36:40.646Z,21.6
2018-04-16T03:37:30.421Z,21.6
2018-04-16T03:38:20.756Z,21.6
2018-04-16T03:39:11.702Z,21.6
2018-04-16T03:40:00.878Z,21.6
2018-04-16T03:40:51.838Z,21.6
2018-04-16T03:41:40.701Z,21.6
2018-04-16T03:42:31.316Z,21.6
2018-04-16T03:43:20.491Z,21.6
2018-04-16T03:44:11.443Z,21.6
2018-04-16T03:45:01.524Z,21.7
2018-04-16T03:45:51.953Z,21.6
2018-04-16T03:46:41.753Z,21.6
2018-04-16T03:47:31.723Z,21.6
2018-04-16T03:48:20.645Z,21.6
2018-04-16T03:49:11.870Z,21.6
2018-04-16T03:50:02.230Z,21.6
2018-04-16T03:50:51.650Z,21.6
2018-04-16T03:51:42.325Z,21.6
2018-04-16T03:52:32.652Z,21.6
2018-04-16T03:53:22.127Z,21.6
2018-04-16T03:54:12.772Z,21.6
2018-04-16T03:55:02.012Z,21.6
2018-04-16T03:55:51.800Z,21.6
2018-04-16T03:56:41.839Z,21.6
2018-04-16T03:57:33.035Z,21.6
2018-04-16T03:58:22.277Z,21.6
2018-04-16T03:59:12.319Z,21.6
2018-04-16T04:00:03.056Z,21.6
2018-04-16T04:00:52.697Z,21.6
2018-04-16T04:01:42.309Z,21.6
2018-04-16T04:02:32.634Z,21.6
2018-04-16T04:03:22.941Z,21.6
2018-04-16T04:04:13.049Z,21.6
2018-04-16T04:05:01.880Z,21.6
2018-04-16T04:05:53.094Z,21.6
2018-04-16T04:06:43.180Z,21.6
2018-04-16T04:07:33.199Z,21.6
2018-04-16T04:08:23.577Z,21.6
2018-04-16T04:09:13.671Z,21.6
2018-04-16T04:10:03.438Z,21.6
2018-04-16T04:10:52.636Z,21.6
2018-04-16T04:11:42.693Z,21.6
2018-04-16T04:12:33.920Z,21.6
2018-04-16T04:13:23.646Z,21.6
2018-04-16T04:14:13.246Z,21.6
2018-04-16T04:15:04.105Z,21.6
2018-04-16T04:15:54.435Z,21.6
2018-04-16T04:16:44.473Z,21.6
2018-04-16T04:17:34.575Z,21.5
2018-04-16T04:18:23.516Z,21.6
2018-04-16T04:19:14.678Z,21.6
2018-04-16T04:20:04.762Z,21.6
2018-04-16T04:20:53.957Z,21.5
2018-04-16T04:21:43.421Z,21.6
2018-04-16T04:22:34.623Z,21.6
2018-04-16T04:23:24.457Z,21.6
2018-04-16T04:24:14.779Z,21.6
2018-04-16T04:25:04.804Z,21.6
2018-04-16T04:25:53.760Z,21.6
2018-04-16T04:26:43.636Z,21.5
2018-04-16T04:27:34.214Z,21.5
2018-04-16T04:28:24.493Z,21.5
2018-04-16T04:29:14.835Z,21.4
2018-04-16T04:30:05.479Z,21.5
2018-04-16T04:30:54.806Z,21.5
2018-04-16T04:31:44.807Z,21.5
2018-04-16T04:32:34.860Z,21.5
2018-04-16T04:33:24.834Z,21.5
2018-04-16T04:34:15.067Z,21.5
2018-04-16T04:35:04.521Z,21.5
2018-04-16T04:35:55.213Z,21.5
2018-04-16T04:36:45.290Z,21.5
2018-04-16T04:37:34.806Z,21.5
2018-04-16T04:38:25.412Z,21.5
2018-04-16T04:39:15.610Z,21.5
2018-04-16T04:40:05.509Z,21.5
2018-04-16T04:40:56.067Z,21.4
2018-04-16T04:41:45.036Z,21.4
2018-04-16T04:42:35.929Z,21.4
2018-04-16T04:43:25.609Z,21.4
2018-04-16T04:44:16.353Z,21.4
2018-04-16T04:45:05.339Z,21.4
2018-04-16T04:45:56.203Z,21.4
2018-04-16T04:46:45.536Z,21.5
2018-04-16T04:47:36.301Z,21.5
2018-04-16T04:48:26.302Z,21.5
2018-04-16T04:49:15.805Z,21.5
2018-04-16T04:50:07.000Z,21.5
2018-04-16T04:50:56.250Z,21.4
2018-04-16T04:51:46.375Z,21.4
2018-04-16T04:52:36.668Z,21.4
2018-04-16T04:53:27.025Z,21.4
2018-04-16T04:54:17.035Z,21.4
2018-04-16T04:55:06.812Z,21.4
2018-04-16T04:55:56.607Z,21.4
2018-04-16T04:56:46.484Z,21.5
2018-04-16T04:57:36.252Z,21.4
2018-04-16T04:58:27.686Z,21.4
2018-04-16T04:59:17.133Z,21.4
2018-04-16T05:00:07.226Z,21.4
2018-04-16T05:00:56.997Z,21.5
2018-04-16T05:01:47.322Z,21.5
2018-04-16T05:02:37.104Z,21.4
2018-04-16T05:03:27.462Z,21.4
2018-04-16T05:04:17.322Z,21.4
2018-04-16T05:05:08.128Z,21.4
2018-04-16T05:05:57.628Z,21.5
2018-04-16T05:06:48.334Z,21.5
2018-04-16T05:07:38.329Z,21.5
2018-04-16T05:08:27.884Z,21.4
2018-04-16T05:09:18.509Z,21.5
2018-04-16T05:10:08.277Z,21.4
2018-04-16T05:10:57.217Z,21.4
2018-04-16T05:11:47.839Z,21.4
2018-04-16T05:12:38.732Z,21.4
2018-04-16T05:13:27.986Z,21.4
2018-04-16T05:14:17.176Z,21.4
2018-04-16T05:15:08.341Z,21.4
2018-04-16T05:15:58.983Z,21.4
2018-04-16T05:16:47.956Z,21.4
2018-04-16T05:17:38.513Z,21.4
2018-04-16T05:18:28.853Z,21.4
2018-04-16T05:19:18.925Z,21.4
2018-04-16T05:20:08.700Z,21.4
2018-04-16T05:20:58.621Z,21.4
2018-04-16T05:21:48.840Z,21.4
2018-04-16T05:22:37.842Z,21.4
2018-04-16T05:23:29.009Z,21.4
2018-04-16T05:24:18.988Z,21.4
2018-04-16T05:25:08.896Z,21.4
2018-04-16T05:25:59.245Z,21.4
2018-04-16T05:26:49.782Z,21.4
2018-04-16T05:27:39.372Z,21.4
2018-04-16T05:28:29.392Z,21.4
2018-04-16T05:29:19.193Z,21.4
2018-04-16T05:30:09.755Z,21.4
2018-04-16T05:30:59.351Z,21.4
2018-04-16T05:31:48.855Z,21.4
2018-04-16T05:32:39.639Z,21.4
2018-04-16T05:33:29.231Z,21.4
2018-04-16T05:34:19.016Z,21.4
2018-04-16T05:35:09.342Z,21.4
2018-04-16T05:35:59.428Z,21.4
2018-04-16T05:36:49.235Z,21.4
2018-04-16T05:37:39.856Z,21.4
2018-04-16T05:38:28.782Z,21.4
2018-04-16T05:39:19.707Z,21.4
2018-04-16T05:40:10.260Z,21.4
2018-04-16T05:40:59.193Z,21.4
2018-04-16T05:41:50.132Z,21.4
2018-04-16T05:42:39.833Z,21.4
2018-04-16T05:43:29.977Z,21.4
2018-04-16T05:44:19.669Z,21.4
2018-04-16T05:45:09.799Z,21.4
2018-04-16T05:46:00.433Z,21.4
2018-04-16T05:46:50.767Z,21.4
2018-04-16T05:47:40.593Z,21.4
2018-04-16T05:48:29.533Z,21.4
2018-04-16T05:49:20.193Z,21.4
2018-04-16T05:50:10.231Z,21.4
2018-04-16T05:51:00.850Z,21.4
2018-04-16T05:51:50.331Z,21.4
2018-04-16T05:52:40.986Z,21.4
2018-04-16T05:53:29.946Z,21.3
2018-04-16T05:54:20.566Z,21.4
2018-04-16T05:55:10.061Z,21.3
2018-04-16T05:56:01.237Z,21.3
2018-04-16T05:56:50.439Z,21.3
2018-04-16T05:57:40.473Z,21.3
2018-04-16T05:58:31.713Z,21.3
2018-04-16T05:59:21.480Z,21.3
2018-04-16T06:00:11.586Z,21.3
2018-04-16T06:01:01.603Z,21.3
2018-04-16T06:01:51.210Z,21.4
2018-04-16T06:02:40.612Z,21.4
2018-04-16T06:03:31.765Z,21.3
2018-04-16T06:04:21.478Z,21.3
2018-04-16T06:05:11.322Z,21.3
2018-04-16T06:06:01.738Z,21.4
2018-04-16T06:06:51.754Z,21.4
2018-04-16T06:07:41.253Z,21.3
2018-04-16T06:08:31.601Z,21.3
2018-04-16T06:09:21.947Z,21.4
2018-04-16T06:10:11.749Z,21.4
2018-04-16T06:11:02.407Z,21.3
2018-04-16T06:11:51.588Z,21.4
2018-04-16T06:12:41.538Z,21.3
2018-04-16T06:13:31.817Z,21.3
2018-04-16T06:14:22.215Z,21.4
2018-04-16T06:15:11.800Z,21.3
2018-04-16T06:16:02.741Z,21.3
2018-04-16T06:16:51.790Z,21.3
2018-04-16T06:17:43.392Z,21.3
2018-04-16T06:18:32.347Z,21.3
2018-04-16T06:19:23.197Z,21.3
2018-04-16T06:20:12.677Z,21.3
2018-04-16T06:21:02.420Z,21.3
2018-04-16T06:21:53.362Z,21.4
2018-04-16T06:22:43.414Z,21.3
2018-04-16T06:23:32.054Z,21.3
2018-04-16T06:24:22.202Z,21.3
2018-04-16T06:25:13.462Z,21.3
2018-04-16T06:26:02.907Z,21.3
2018-04-16T06:26:54.046Z,21.3
2018-04-16T06:27:42.158Z,21.3
2018-04-16T06:28:34.144Z,21.3
2018-04-16T06:29:22.839Z,21.3
2018-04-16T06:30:13.009Z,21.3
2018-04-16T06:31:03.826Z,21.3
2018-04-16T06:31:53.137Z,21.3
2018-04-16T06:32:43.425Z,21.3
2018-04-16T06:33:34.296Z,21.3
2018-04-16T06:34:24.418Z,21.3
2018-04-16T06:35:14.133Z,21.3
2018-04-16T06:36:04.176Z,21.3
2018-04-16T06:36:54.973Z,21.3
2018-04-16T06:37:43.755Z,21.3
2018-04-16T06:38:34.340Z,21.3
2018-04-16T06:39:23.887Z,21.3
2018-04-16T06:40:14.789Z,21.3
2018-04-16T06:41:04.843Z,21.3
2018-04-16T06:41:54.652Z,21.3
2018-04-16T06:42:44.961Z,21.3
2018-04-16T06:43:33.325Z,21.3
2018-04-16T06:44:24.773Z,21.3
2018-04-16T06:45:14.584Z,21.3
2018-04-16T06:46:04.722Z,21.3
2018-04-16T06:46:54.247Z,21.3
2018-04-16T06:47:43.767Z,21.3
2018-04-16T06:48:35.162Z,21.3
2018-04-16T06:49:24.346Z,21.3
2018-04-16T06:50:14.707Z,21.3
2018-04-16T06:51:05.599Z,21.3
2018-04-16T06:51:54.807Z,21.3
2018-04-16T06:52:45.269Z,21.3
2018-04-16T06:53:35.535Z,21.3
2018-04-16T06:54:25.205Z,21.3
2018-04-16T06:55:15.619Z,21.3
2018-04-16T06:56:06.222Z,21.3
2018-04-16T06:56:55.761Z,21.3
2018-04-16T06:57:46.017Z,21.3
2018-04-16T06:58:34.771Z,21.3
2018-04-16T06:59:26.824Z,21.3
2018-04-16T07:00:16.390Z,21.3
2018-04-16T07:01:06.647Z,21.3
2018-04-16T07:01:56.679Z,21.3
2018-04-16T07:02:45.432Z,21.3
2018-04-16T07:03:37.108Z,21.3
2018-04-16T07:04:25.033Z,21.3
2018-04-16T07:05:16.520Z,21.3
2018-04-16T07:06:06.051Z,21.3
2018-04-16T07:06:56.268Z,21.3
2018-04-16T07:07:47.195Z,21.3
2018-04-16T07:08:37.309Z,21.3
2018-04-16T07:09:26.167Z,21.3
2018-04-16T07:10:17.062Z,21.3
2018-04-16T07:11:06.939Z,21.3
2018-04-16T07:11:57.419Z,21.3
2018-04-16T07:12:46.889Z,21.3
2018-04-16T07:13:36.957Z,21.3
2018-04-16T07:14:27.068Z,21.3
2018-04-16T07:15:17.088Z,21.3
2018-04-16T07:16:08.626Z,21.3
2018-04-16T07:16:57.010Z,21.3
2018-04-16T07:17:47.633Z,21.3
2018-04-16T07:18:37.669Z,21.3
2018-04-16T07:19:26.908Z,21.3
2018-04-16T07:20:17.032Z,21.3
2018-04-16T07:21:08.394Z,21.3
2018-04-16T07:21:57.455Z,21.3
2018-04-16T07:22:48.248Z,21.3
2018-04-16T07:23:38.360Z,21.3
2018-04-16T07:24:28.242Z,21.3
2018-04-16T07:25:17.039Z,21.3
2018-04-16T07:26:08.741Z,21.3
2018-04-16T07:26:58.308Z,21.3
2018-04-16T07:27:47.549Z,21.3
2018-04-16T07:28:37.824Z,21.3
2018-04-16T07:29:27.145Z,21.3
2018-04-16T07:30:17.172Z,21.3
2018-04-16T07:31:08.019Z,21.3
2018-04-16T07:31:58.634Z,21.3
2018-04-16T07:32:48.688Z,21.3
2018-04-16T07:33:39.470Z,21.3
2018-04-16T07:34:28.810Z,21.3
2018-04-16T07:35:19.397Z,21.3
2018-04-16T07:36:08.449Z,21.3
2018-04-16T07:36:58.396Z,21.3
2018-04-16T07:37:49.370Z,21.3
2018-04-16T07:38:39.649Z,21.3
2018-04-16T07:39:29.119Z,21.3
2018-04-16T07:40:19.891Z,21.3
2018-04-16T07:41:09.001Z,21.3
2018-04-16T07:41:58.795Z,21.3
2018-04-16T07:42:48.964Z,21.3
2018-04-16T07:43:39.223Z,21.3
2018-04-16T07:44:29.002Z,21.3
2018-04-16T07:45:19.401Z,21.3
2018-04-16T07:46:09.948Z,21.3
2018-04-16T07:46:58.709Z,21.3
2018-04-16T07:47:49.229Z,21.3
2018-04-16T07:48:39.955Z,21.3
2018-04-16T07:49:29.552Z,21.3
2018-04-16T07:50:19.447Z,21.3
2018-04-16T07:51:10.116Z,21.3
2018-04-16T07:52:00.446Z,21.3
2018-04-16T07:52:49.692Z,21.3
2018-04-16T07:53:38.450Z,21.3
2018-04-16T07:54:29.512Z,21.3
2018-04-16T07:55:20.927Z,21.3
2018-04-16T07:56:10.419Z,21.3
2018-04-16T07:56:59.937Z,21.3
2018-04-16T07:57:50.617Z,21.3
2018-04-16T07:58:40.620Z,21.3
2018-04-16T07:59:30.750Z,21.3
2018-04-16T08:00:20.487Z,21.3
2018-04-16T08:01:10.619Z,21.3
2018-04-16T08:01:59.803Z,21.3
2018-04-16T08:02:49.943Z,21.3
2018-04-16T08:03:40.840Z,21.3
2018-04-16T08:04:30.176Z,21.3
2018-04-16T08:05:21.185Z,21.3
2018-04-16T08:06:11.171Z,21.3
2018-04-16T08:07:00.696Z,21.3
2018-04-16T08:07:51.612Z,21.3
2018-04-16T08:08:41.945Z,21.3
2018-04-16T08:09:31.145Z,21.3
2018-04-16T08:10:21.488Z,21.3
2018-04-16T08:11:11.863Z,21.3
2018-04-16T08:12:01.668Z,21.3
2018-04-16T08:12:51.750Z,21.3
2018-04-16T08:13:41.776Z,21.3
2018-04-16T08:14:30.998Z,21.3
2018-04-16T08:15:21.871Z,21.3
2018-04-16T08:16:12.238Z,21.3
2018-04-16T08:17:02.075Z,21.3
2018-04-16T08:17:51.554Z,21.3
2018-04-16T08:18:42.121Z,21.3
2018-04-16T08:19:32.503Z,21.3
2018-04-16T08:20:21.386Z,21.3
2018-04-16T08:21:12.562Z,21.3
2018-04-16T08:22:02.938Z,21.3
2018-04-16T08:22:52.444Z,21.3
2018-04-16T08:23:43.059Z,21.3
2018-04-16T08:24:32.028Z,21.3
2018-04-16T08:25:23.191Z,21.3
2018-04-16T08:26:12.947Z,21.3
2018-04-16T08:27:03.519Z,21.3
2018-04-16T08:27:52.820Z,21.3
2018-04-16T08:28:43.150Z,21.3
2018-04-16T08:29:32.675Z,21.3
2018-04-16T08:30:22.725Z,21.3
2018-04-16T08:31:13.060Z,21.3
2018-04-16T08:32:03.160Z,21.3
2018-04-16T08:32:53.738Z,21.3
2018-04-16T08:33:43.549Z,21.3
2018-04-16T08:34:33.054Z,21.3
2018-04-16T08:35:23.125Z,21.3
2018-04-16T08:36:13.602Z,21.3
2018-04-16T08:37:03.780Z,21.3
2018-04-16T08:37:53.839Z,21.3
2018-04-16T08:38:43.072Z,21.3
2018-04-16T08:39:34.296Z,21.3
2018-04-16T08:40:23.504Z,21.3
2018-04-16T08:41:13.603Z,21.3
2018-04-16T08:42:04.155Z,21.3
2018-04-16T08:42:53.361Z,21.3
2018-04-16T08:43:44.557Z,21.3
2018-04-16T08:44:34.061Z,21.3
2018-04-16T08:45:23.825Z,21.3
2018-04-16T08:46:13.869Z,21.3
2018-04-16T08:47:04.505Z,21.3
2018-04-16T08:47:54.333Z,21.3
2018-04-16T08:48:43.828Z,21.3
2018-04-16T08:49:34.150Z,21.3
2018-04-16T08:50:24.503Z,21.3
2018-04-16T08:51:14.294Z,21.3
2018-04-16T08:52:04.952Z,21.3
2018-04-16T08:52:54.931Z,21.3
2018-04-16T08:53:44.161Z,21.3
2018-04-16T08:54:34.871Z,21.3
2018-04-16T08:55:25.196Z,21.2
2018-04-16T08:56:15.530Z,21.3
2018-04-16T08:57:04.710Z,21.3
2018-04-16T08:57:55.066Z,21.3
2018-04-16T08:58:45.111Z,21.3
2018-04-16T08:59:36.019Z,21.3
2018-04-16T09:00:25.798Z,21.3
2018-04-16T09:01:15.862Z,21.3
2018-04-16T09:02:05.694Z,21.3
2018-04-16T09:02:55.174Z,21.3
2018-04-16T09:03:46.106Z,21.3
2018-04-16T09:04:36.143Z,21.3
2018-04-16T09:05:25.907Z,21.3
2018-04-16T09:06:16.017Z,21.3
2018-04-16T09:07:05.180Z,21.3
2018-04-16T09:07:56.092Z,21.3
2018-04-16T09:08:46.058Z,21.3
2018-04-16T09:09:36.538Z,21.3
2018-04-16T09:10:26.007Z,21.3
2018-04-16T09:11:15.790Z,21.3
2018-04-16T09:12:05.828Z,21.2
2018-04-16T09:12:55.957Z,21.3
2018-04-16T09:13:46.548Z,21.2
2018-04-16T09:14:36.077Z,21.2
2018-04-16T09:15:25.840Z,21.3
2018-04-16T09:16:16.459Z,21.2
2018-04-16T09:17:06.350Z,21.2
2018-04-16T09:17:56.886Z,21.3
2018-04-16T09:18:46.092Z,21.3
2018-04-16T09:19:37.275Z,21.3
2018-04-16T09:20:27.102Z,21.3
2018-04-16T09:21:16.866Z,21.3
2018-04-16T09:22:06.637Z,21.3
2018-04-16T09:22:56.983Z,21.3
2018-04-16T09:23:46.214Z,21.3
2018-04-16T09:24:36.824Z,21.3
2018-04-16T09:25:27.784Z,21.3
2018-04-16T09:26:17.550Z,21.3
2018-04-16T09:27:06.975Z,21.3
2018-04-16T09:27:56.901Z,21.3
2018-04-16T09:28:47.152Z,21.3
2018-04-16T09:29:37.229Z,21.3
2018-04-16T09:30:27.245Z,21.3
2018-04-16T09:31:17.897Z,21.3
2018-04-16T09:32:07.928Z,21.3
2018-04-16T09:32:57.526Z,21.3
2018-04-16T09:33:47.775Z,21.3
2018-04-16T09:34:37.578Z,21.3
2018-04-16T09:35:27.322Z,21.3
2018-04-16T09:36:17.988Z,21.3
2018-04-16T09:37:07.192Z,21.3
2018-04-16T09:37:58.752Z,21.3
2018-04-16T09:38:48.703Z,21.3
2018-04-16T09:39:37.885Z,21.3
2018-04-16T09:40:28.264Z,21.3
2018-04-16T09:41:18.287Z,21.3
2018-04-16T09:42:08.734Z,21.3
2018-04-16T09:42:58.727Z,21.3
2018-04-16T09:43:48.330Z,21.3
2018-04-16T09:44:38.355Z,21.3
2018-04-16T09:45:28.091Z,21.3
2018-04-16T09:46:18.532Z,21.3
2018-04-16T09:47:09.090Z,21.3
2018-04-16T09:47:58.852Z,21.3
2018-04-16T09:48:48.754Z,21.3
2018-04-16T09:49:39.307Z,21.3
2018-04-16T09:50:29.378Z,21.3
2018-04-16T09:51:19.183Z,21.3
2018-04-16T09:52:09.180Z,21.3
2018-04-16T09:52:58.381Z,21.3
2018-04-16T09:53:49.908Z,21.3
2018-04-16T09:54:39.109Z,21.3
2018-04-16T09:55:29.176Z,21.3
2018-04-16T09:56:19.238Z,21.3
2018-04-16T09:57:09.878Z,21.3
2018-04-16T09:57:59.069Z,21.3
2018-04-16T09:58:49.352Z,21.3
2018-04-16T09:59:39.716Z,21.3
2018-04-16T10:00:29.579Z,21.3
2018-04-16T10:01:19.833Z,21.3
2018-04-16T10:02:09.918Z,21.3
2018-04-16T10:03:00.341Z,21.3
2018-04-16T10:03:50.396Z,21.3
2018-04-16T10:04:40.084Z,21.3
2018-04-16T10:05:29.625Z,21.3
2018-04-16T10:06:19.089Z,21.3
2018-04-16T10:07:09.998Z,21.3
2018-04-16T10:08:00.673Z,21.3
2018-04-16T10:08:50.963Z,21.3
2018-04-16T10:09:40.743Z,21.3
2018-04-16T10:10:30.798Z,21.3
2018-04-16T10:11:20.794Z,21.3
2018-04-16T10:12:11.275Z,21.3
2018-04-16T10:13:00.713Z,21.3
2018-04-16T10:13:50.835Z,21.3
2018-04-16T10:14:41.150Z,21.3
2018-04-16T10:15:30.071Z,21.3
2018-04-16T10:16:21.237Z,21.3
2018-04-16T10:17:11.033Z,21.3
2018-04-16T10:18:01.472Z,21.3
2018-04-16T10:18:50.617Z,21.3
2018-04-16T10:19:41.288Z,21.3
2018-04-16T10:20:30.777Z,21.3
2018-04-16T10:21:21.073Z,21.3
2018-04-16T10:22:11.141Z,21.3
2018-04-16T10:23:01.275Z,21.3
2018-04-16T10:23:50.145Z,21.3
2018-04-16T10:24:42.220Z,21.3
2018-04-16T10:25:31.655Z,21.3
2018-04-16T10:26:20.055Z,21.3
2018-04-16T10:27:11.823Z,21.3
2018-04-16T10:28:01.878Z,21.3
2018-04-16T10:28:51.669Z,21.3
2018-04-16T10:29:41.433Z,21.3
2018-04-16T10:30:32.352Z,21.3
2018-04-16T10:31:21.282Z,21.3
2018-04-16T10:32:11.855Z,21.3
2018-04-16T10:33:02.029Z,21.3
2018-04-16T10:33:51.757Z,21.3
2018-04-16T10:34:41.532Z,21.3
2018-04-16T10:35:32.422Z,21.3
2018-04-16T10:36:22.465Z,21.3
2018-04-16T10:37:12.572Z,21.3
2018-04-16T10:38:01.787Z,21.3
2018-04-16T10:38:52.689Z,21.3
2018-04-16T10:39:43.069Z,21.3
2018-04-16T10:40:33.549Z,21.3
2018-04-16T10:41:22.360Z,21.3
2018-04-16T10:42:12.666Z,21.3
2018-04-16T10:43:02.436Z,21.3
2018-04-16T10:43:53.056Z,21.3
2018-04-16T10:44:42.876Z,21.3
2018-04-16T10:45:33.193Z,21.3
2018-04-16T10:46:22.682Z,21.3
2018-04-16T10:47:14.079Z,21.3
2018-04-16T10:48:03.549Z,21.2
2018-04-16T10:48:54.491Z,21.3
2018-04-16T10:49:44.222Z,21.3
2018-04-16T10:50:34.381Z,21.3
2018-04-16T10:51:24.678Z,21.3
2018-04-16T10:52:13.883Z,21.3
2018-04-16T10:53:04.232Z,21.3
2018-04-16T10:53:54.667Z,21.2
2018-04-16T10:54:44.086Z,21.3
2018-04-16T10:55:35.254Z,21.2
2018-04-16T10:56:24.782Z,21.2
2018-04-16T10:57:14.016Z,21.3
2018-04-16T10:58:03.786Z,21.3
2018-04-16T10:58:54.401Z,21.2
2018-04-16T10:59:44.702Z,21.3
2018-04-16T11:00:35.410Z,21.2
2018-04-16T11:01:24.583Z,21.3
2018-04-16T11:02:14.377Z,21.3
2018-04-16T11:03:04.720Z,21.3
2018-04-16T11:03:55.046Z,21.2
2018-04-16T11:04:44.852Z,21.2
2018-04-16T11:05:34.895Z,21.2
2018-04-16T11:06:25.957Z,21.2